createdAt,value
2023-04-06T00:00:35.946Z,35.17
2023-04-06T00:01:38.826Z,35.04
2023-04-06T00:02:40.731Z,34.67
2023-04-06T00:03:43.731Z,34.98
2023-04-06T00:04:45.753Z,34.73
2023-04-06T00:05:49.394Z,35.33
2023-04-06T00:06:51.210Z,34.78
2023-04-06T00:07:55.247Z,34.79
2023-04-06T00:08:57.304Z,34.96
2023-04-06T00:10:00.187Z,34.82
2023-04-06T00:11:02.011Z,35.09
2023-04-06T00:12:06.627Z,34.92
2023-04-06T00:13:08.545Z,35.34
2023-04-06T00:14:11.365Z,35.29
2023-04-06T00:15:13.174Z,35.50
2023-04-06T00:16:16.056Z,35.66
2023-04-06T00:17:17.864Z,35.56
2023-04-06T00:18:20.779Z,35.52
2023-04-06T00:19:22.857Z,34.83
2023-04-06T00:20:25.700Z,35.08
2023-04-06T00:21:27.737Z,35.04
2023-04-06T00:22:30.770Z,35.61
2023-04-06T00:23:32.617Z,35.20
2023-04-06T00:24:35.413Z,35.52
2023-04-06T00:25:37.268Z,35.20
2023-04-06T00:26:40.095Z,35.13
2023-04-06T00:27:43.247Z,35.75
2023-04-06T00:28:46.329Z,35.48
2023-04-06T00:29:48.191Z,35.75
2023-04-06T00:30:51.246Z,36.26
2023-04-06T00:31:53.223Z,35.37
2023-04-06T00:32:56.143Z,35.93
2023-04-06T00:33:59.110Z,35.50
2023-04-06T00:35:01.945Z,35.54
2023-04-06T00:36:04.168Z,35.74
2023-04-06T00:37:07.041Z,36.20
2023-04-06T00:38:08.925Z,36.20
2023-04-06T00:39:12.103Z,35.40
2023-04-06T00:40:14.130Z,36.05
2023-04-06T00:41:16.943Z,35.74
2023-04-06T00:42:26.117Z,35.66
2023-04-06T00:43:30.345Z,35.29
2023-04-06T00:44:32.972Z,35.71
2023-04-06T00:45:36.976Z,35.41
2023-04-06T00:46:38.783Z,35.49
2023-04-06T00:47:41.744Z,36.40
2023-04-06T00:48:43.667Z,36.44
2023-04-06T00:49:46.475Z,36.50
2023-04-06T00:50:48.301Z,35.97
2023-04-06T00:51:51.222Z,36.25
2023-04-06T00:52:53.023Z,35.87
2023-04-06T00:53:55.913Z,35.70
2023-04-06T00:54:57.717Z,36.11
2023-04-06T00:56:00.527Z,36.30
2023-04-06T00:57:02.357Z,36.56
2023-04-06T00:58:06.624Z,36.73
2023-04-06T00:59:10.178Z,36.16
2023-04-06T01:00:14.514Z,36.76
2023-04-06T01:01:16.433Z,36.18
2023-04-06T01:02:19.435Z,36.31
2023-04-06T01:03:21.448Z,36.64
2023-04-06T01:04:24.585Z,36.48
2023-04-06T01:05:26.441Z,36.59
2023-04-06T01:06:29.284Z,37.04
2023-04-06T01:07:31.343Z,36.62
2023-04-06T01:08:34.261Z,36.58
2023-04-06T01:09:36.249Z,37.28
2023-04-06T01:10:39.051Z,36.83
2023-04-06T01:11:40.835Z,37.29
2023-04-06T01:12:43.683Z,37.18
2023-04-06T01:13:45.512Z,36.89
2023-04-06T01:14:49.841Z,37.80
2023-04-06T01:15:51.777Z,36.75
2023-04-06T01:16:54.905Z,36.92
2023-04-06T01:17:56.766Z,37.76
2023-04-06T01:18:59.582Z,37.15
2023-04-06T01:20:01.433Z,37.49
2023-04-06T01:21:04.479Z,37.50
2023-04-06T01:22:06.346Z,37.02
2023-04-06T01:23:10.658Z,37.88
2023-04-06T01:24:12.515Z,37.13
2023-04-06T01:25:15.517Z,37.69
2023-04-06T01:26:17.406Z,37.08
2023-04-06T01:27:20.160Z,36.99
2023-04-06T01:28:22.050Z,37.30
2023-04-06T01:29:25.074Z,37.61
2023-04-06T01:30:27.464Z,37.62
2023-04-06T01:31:30.534Z,37.34
2023-04-06T01:32:32.492Z,37.03
2023-04-06T01:33:35.597Z,37.88
2023-04-06T01:34:37.441Z,37.24
2023-04-06T01:35:40.574Z,37.03
2023-04-06T01:36:42.470Z,37.56
2023-04-06T01:37:45.663Z,37.08
2023-04-06T01:38:48.869Z,37.64
2023-04-06T01:39:52.631Z,37.13
2023-04-06T01:40:54.655Z,37.36
2023-04-06T01:41:57.447Z,37.11
2023-04-06T01:42:59.279Z,36.94
2023-04-06T01:44:02.250Z,37.96
2023-04-06T01:45:04.762Z,37.92
2023-04-06T01:46:07.594Z,36.95
2023-04-06T01:47:09.449Z,37.52
2023-04-06T01:48:12.291Z,36.86
2023-04-06T01:49:14.340Z,37.48
2023-04-06T01:50:17.362Z,38.01
2023-04-06T01:51:19.297Z,37.59
2023-04-06T01:52:22.217Z,37.22
2023-04-06T01:53:24.049Z,37.49
2023-04-06T01:54:28.288Z,37.66
2023-04-06T01:55:30.106Z,37.18
2023-04-06T01:56:33.015Z,37.03
2023-04-06T01:57:36.109Z,37.83
2023-04-06T01:58:39.107Z,37.30
2023-04-06T01:59:41.054Z,37.34
2023-04-06T02:00:44.070Z,38.16
2023-04-06T02:01:46.318Z,37.62
2023-04-06T02:02:49.316Z,38.07
2023-04-06T02:03:51.217Z,37.63
2023-04-06T02:04:54.016Z,37.39
2023-04-06T02:05:56.063Z,37.58
2023-04-06T02:06:58.962Z,38.25
2023-04-06T02:08:00.851Z,37.49
2023-04-06T02:09:03.786Z,37.53
2023-04-06T02:10:12.422Z,37.68
2023-04-06T02:11:15.301Z,37.99
2023-04-06T02:12:17.158Z,38.36
2023-04-06T02:13:19.986Z,37.85
2023-04-06T02:14:21.854Z,37.58
2023-04-06T02:15:24.743Z,38.49
2023-04-06T02:16:26.749Z,37.63
2023-04-06T02:17:29.733Z,38.08
2023-04-06T02:18:33.321Z,38.51
2023-04-06T02:19:35.090Z,38.41
2023-04-06T02:20:37.935Z,37.85
2023-04-06T02:21:39.777Z,38.15
2023-04-06T02:22:42.684Z,37.76
2023-04-06T02:23:44.507Z,38.45
2023-04-06T02:24:47.667Z,37.69
2023-04-06T02:25:51.218Z,38.59
2023-04-06T02:26:54.023Z,38.55
2023-04-06T02:27:56.268Z,37.70
2023-04-06T02:28:59.066Z,38.10
2023-04-06T02:30:01.003Z,38.81
2023-04-06T02:31:04.018Z,38.32
2023-04-06T02:32:06.103Z,38.57
2023-04-06T02:33:08.970Z,38.44
2023-04-06T02:34:13.048Z,38.34
2023-04-06T02:35:15.898Z,38.53
2023-04-06T02:36:17.677Z,38.33
2023-04-06T02:37:20.571Z,38.78
2023-04-06T02:38:22.373Z,38.44
2023-04-06T02:39:25.229Z,38.07
2023-04-06T02:40:27.159Z,38.96
2023-04-06T02:41:31.389Z,38.34
2023-04-06T02:42:33.873Z,38.66
2023-04-06T02:43:36.701Z,39.01
2023-04-06T02:44:38.568Z,38.68
2023-04-06T02:45:41.749Z,38.37
2023-04-06T02:46:43.687Z,38.11
2023-04-06T02:47:47.027Z,39.03
2023-04-06T02:48:48.948Z,38.77
2023-04-06T02:49:51.733Z,38.75
2023-04-06T02:50:53.655Z,38.28
2023-04-06T02:51:56.493Z,38.44
2023-04-06T02:52:58.580Z,38.29
2023-04-06T02:54:01.373Z,39.00
2023-04-06T02:55:03.250Z,38.90
2023-04-06T02:56:06.576Z,38.14
2023-04-06T02:57:09.988Z,38.37
2023-04-06T02:58:12.851Z,38.24
2023-04-06T02:59:14.801Z,38.96
2023-04-06T03:00:18.038Z,38.95
2023-04-06T03:01:19.863Z,38.61
2023-04-06T03:02:22.801Z,38.99
2023-04-06T03:03:24.752Z,39.00
2023-04-06T03:04:27.658Z,38.44
2023-04-06T03:05:29.436Z,39.59
2023-04-06T03:06:32.418Z,39.02
2023-04-06T03:07:34.386Z,39.11
2023-04-06T03:08:37.465Z,39.03
2023-04-06T03:09:39.433Z,39.11
2023-04-06T03:10:42.263Z,38.78
2023-04-06T03:11:44.118Z,39.53
2023-04-06T03:12:48.410Z,39.42
2023-04-06T03:13:50.296Z,38.89
2023-04-06T03:14:53.141Z,39.20
2023-04-06T03:15:55.171Z,39.25
2023-04-06T03:16:58.054Z,39.46
2023-04-06T03:18:00.571Z,39.70
2023-04-06T03:19:03.661Z,38.91
2023-04-06T03:20:06.333Z,39.77
2023-04-06T03:21:09.258Z,39.83
2023-04-06T03:22:11.269Z,39.12
2023-04-06T03:23:14.106Z,39.02
2023-04-06T03:24:15.984Z,39.80
2023-04-06T03:25:18.786Z,39.27
2023-04-06T03:26:20.760Z,39.76
2023-04-06T03:27:23.526Z,39.74
2023-04-06T03:28:26.754Z,39.60
2023-04-06T03:29:29.575Z,39.02
2023-04-06T03:30:31.418Z,39.64
2023-04-06T03:31:34.312Z,39.46
2023-04-06T03:32:36.289Z,39.69
2023-04-06T03:33:39.139Z,40.05
2023-04-06T03:34:40.969Z,39.40
2023-04-06T03:35:43.881Z,39.43
2023-04-06T03:36:48.422Z,39.61
2023-04-06T03:37:56.251Z,39.29
2023-04-06T03:38:59.223Z,39.56
2023-04-06T03:40:01.286Z,39.99
2023-04-06T03:41:04.140Z,39.76
2023-04-06T03:42:06.192Z,40.16
2023-04-06T03:43:09.094Z,39.40
2023-04-06T03:44:12.343Z,39.60
2023-04-06T03:45:15.500Z,39.95
2023-04-06T03:46:17.361Z,39.77
2023-04-06T03:47:20.502Z,40.35
2023-04-06T03:48:22.343Z,40.33
2023-04-06T03:49:25.206Z,40.28
2023-04-06T03:50:27.387Z,39.88
2023-04-06T03:51:30.390Z,40.53
2023-04-06T03:52:32.496Z,40.40
2023-04-06T03:53:35.268Z,40.02
2023-04-06T03:54:37.352Z,40.00
2023-04-06T03:55:40.719Z,40.11
2023-04-06T03:56:42.592Z,40.43
2023-04-06T03:57:45.456Z,39.76
2023-04-06T03:58:50.419Z,40.04
2023-04-06T03:59:54.651Z,40.27
2023-04-06T04:00:56.494Z,40.16
2023-04-06T04:01:59.371Z,40.20
2023-04-06T04:03:02.758Z,40.76
2023-04-06T04:04:05.736Z,40.67
2023-04-06T04:05:08.188Z,40.60
2023-04-06T04:06:11.052Z,40.89
2023-04-06T04:07:12.861Z,40.19
2023-04-06T04:08:15.900Z,40.37
2023-04-06T04:09:17.715Z,40.38
2023-04-06T04:10:20.666Z,40.73
2023-04-06T04:11:22.500Z,40.00
2023-04-06T04:12:25.371Z,40.76
2023-04-06T04:13:27.187Z,40.66
2023-04-06T04:14:30.054Z,40.71
2023-04-06T04:15:33.427Z,40.02
2023-04-06T04:16:36.295Z,40.36
2023-04-06T04:17:38.152Z,40.12
2023-04-06T04:18:41.045Z,40.08
2023-04-06T04:19:42.922Z,40.34
2023-04-06T04:20:45.881Z,40.79
2023-04-06T04:21:49.094Z,40.55
2023-04-06T04:22:50.980Z,40.38
2023-04-06T04:23:54.563Z,40.25
2023-04-06T04:24:56.517Z,40.37
2023-04-06T04:25:59.792Z,40.05
2023-04-06T04:27:01.980Z,40.03
2023-04-06T04:28:05.070Z,40.25
2023-04-06T04:29:07.421Z,40.61
2023-04-06T04:30:11.157Z,40.03
2023-04-06T04:31:14.361Z,40.55
2023-04-06T04:32:17.574Z,40.87
2023-04-06T04:33:19.513Z,40.25
2023-04-06T04:34:24.973Z,40.79
2023-04-06T04:35:27.982Z,40.43
2023-04-06T04:36:30.841Z,40.47
2023-04-06T04:37:32.698Z,40.77
2023-04-06T04:38:35.567Z,40.15
2023-04-06T04:39:37.445Z,40.08
2023-04-06T04:40:40.535Z,40.87
2023-04-06T04:41:42.767Z,40.57
2023-04-06T04:42:46.108Z,40.63
2023-04-06T04:43:48.425Z,40.63
2023-04-06T04:44:51.603Z,40.39
2023-04-06T04:45:53.795Z,40.63
2023-04-06T04:46:58.846Z,40.50
2023-04-06T04:48:01.010Z,40.84
2023-04-06T04:49:04.030Z,40.86
2023-04-06T04:50:07.450Z,40.23
2023-04-06T04:51:10.684Z,40.71
2023-04-06T04:52:12.913Z,40.14
2023-04-06T04:53:16.457Z,40.33
2023-04-06T04:54:18.597Z,40.73
2023-04-06T04:55:22.787Z,40.69
2023-04-06T04:56:26.840Z,40.59
2023-04-06T04:57:29.865Z,40.47
2023-04-06T04:58:31.844Z,40.44
2023-04-06T04:59:35.106Z,40.87
2023-04-06T05:00:37.350Z,40.68
2023-04-06T05:01:53.676Z,40.63
2023-04-06T05:02:59.676Z,40.63
2023-04-06T05:04:01.945Z,40.78
2023-04-06T05:05:10.776Z,40.65
2023-04-06T05:06:14.724Z,40.92
2023-04-06T05:07:24.640Z,41.17
2023-04-06T05:08:31.370Z,40.30
2023-04-06T05:09:37.172Z,40.27
2023-04-06T05:10:48.831Z,41.01
2023-04-06T05:11:52.319Z,40.74
2023-04-06T05:13:01.307Z,40.83
2023-04-06T05:14:07.388Z,40.54
2023-04-06T05:16:04.897Z,40.36
2023-04-06T05:17:11.097Z,40.55
2023-04-06T05:18:15.984Z,40.72
2023-04-06T05:19:18.174Z,40.47
2023-04-06T05:20:24.453Z,40.47
2023-04-06T05:21:35.035Z,40.73
2023-04-06T05:22:42.247Z,40.20
2023-04-06T05:23:46.786Z,40.53
2023-04-06T05:24:52.862Z,40.92
2023-04-06T05:26:00.933Z,41.06
2023-04-06T05:27:09.962Z,40.56
2023-04-06T05:28:15.307Z,40.77
2023-04-06T05:29:47.886Z,41.16
2023-04-06T05:30:55.496Z,40.37
2023-04-06T05:32:01.791Z,40.85
2023-04-06T05:33:09.914Z,40.71
2023-04-06T05:34:14.673Z,41.16
2023-04-06T05:35:20.904Z,40.87
2023-04-06T05:36:38.212Z,40.28
2023-04-06T05:37:43.434Z,40.24
2023-04-06T05:38:51.049Z,40.53
2023-04-06T05:39:57.186Z,40.30
2023-04-06T05:41:04.758Z,40.82
2023-04-06T05:42:11.778Z,41.08
2023-04-06T05:43:14.832Z,40.15
2023-04-06T05:44:16.932Z,40.86
2023-04-06T05:45:23.498Z,40.55
2023-04-06T05:46:34.155Z,40.72
2023-04-06T05:47:47.154Z,40.98
2023-04-06T05:49:00.868Z,40.83
2023-04-06T05:50:08.544Z,40.81
2023-04-06T05:51:12.261Z,40.38
2023-04-06T05:52:17.549Z,40.06
2023-04-06T05:53:23.354Z,40.46
2023-04-06T05:54:33.137Z,40.79
2023-04-06T05:55:38.561Z,40.27
2023-04-06T05:56:44.745Z,40.03
2023-04-06T05:57:54.942Z,40.67
2023-04-06T05:59:05.747Z,40.53
2023-04-06T06:00:14.464Z,40.29
2023-04-06T06:01:18.822Z,40.35
2023-04-06T06:02:25.707Z,40.56
2023-04-06T06:03:29.822Z,40.70
2023-04-06T06:04:35.025Z,40.62
2023-04-06T06:05:39.361Z,40.28
2023-04-06T06:06:45.829Z,40.45
2023-04-06T06:07:51.257Z,40.75
2023-04-06T06:08:54.762Z,40.86
2023-04-06T06:10:07.287Z,40.25
2023-04-06T06:11:10.747Z,39.90
2023-04-06T06:12:18.242Z,40.16
2023-04-06T06:13:23.452Z,40.35
2023-04-06T06:14:30.415Z,40.19
2023-04-06T06:15:37.797Z,40.35
2023-04-06T06:16:44.746Z,40.41
2023-04-06T06:17:50.399Z,40.14
2023-04-06T06:19:01.487Z,39.83
2023-04-06T06:20:07.798Z,39.91
2023-04-06T06:21:21.705Z,39.78
2023-04-06T06:22:27.063Z,39.82
2023-04-06T06:23:31.991Z,39.87
2023-04-06T06:24:42.283Z,39.46
2023-04-06T06:25:49.150Z,40.03
2023-04-06T06:26:54.456Z,39.88
2023-04-06T06:27:59.758Z,39.64
2023-04-06T06:29:09.687Z,39.95
2023-04-06T06:30:17.226Z,39.54
2023-04-06T06:31:26.585Z,39.87
2023-04-06T06:32:39.008Z,39.21
2023-04-06T06:33:52.984Z,39.69
2023-04-06T06:35:12.334Z,39.53
2023-04-06T06:36:34.945Z,40.04
2023-04-06T06:37:47.560Z,39.34
2023-04-06T06:39:04.245Z,39.37
2023-04-06T06:40:23.656Z,39.44
2023-04-06T06:41:34.297Z,39.82
2023-04-06T06:42:38.025Z,39.77
2023-04-06T06:43:48.295Z,39.23
2023-04-06T06:44:58.301Z,39.47
2023-04-06T06:46:09.702Z,39.51
2023-04-06T06:47:18.860Z,39.70
2023-04-06T06:48:27.735Z,39.36
2023-04-06T06:49:33.052Z,39.27
2023-04-06T06:50:43.062Z,39.30
2023-04-06T06:51:59.148Z,39.03
2023-04-06T06:53:25.738Z,38.87
2023-04-06T06:54:51.421Z,39.17
2023-04-06T06:56:08.159Z,38.44
2023-04-06T06:57:53.079Z,38.93
2023-04-06T06:59:00.608Z,38.28
2023-04-06T07:00:21.282Z,38.71
2023-04-06T07:01:37.364Z,38.68
2023-04-06T07:02:56.585Z,38.41
2023-04-06T07:04:12.385Z,38.42
2023-04-06T07:05:57.515Z,38.50
2023-04-06T07:10:44.033Z,37.52
2023-04-06T07:12:30.856Z,37.32
2023-04-06T07:14:05.553Z,36.93
2023-04-06T07:15:41.913Z,37.06
2023-04-06T07:17:02.625Z,36.63
2023-04-06T07:18:48.124Z,36.28
2023-04-06T07:20:29.650Z,36.40
2023-04-06T07:37:04.390Z,35.01
2023-04-06T07:39:08.618Z,34.84
2023-04-06T07:46:37.969Z,33.96
2023-04-06T08:16:29.732Z,32.75
2023-04-06T08:17:33.168Z,32.34
2023-04-06T08:18:35.995Z,32.16
2023-04-06T08:19:38.416Z,32.47
2023-04-06T08:20:41.246Z,32.10
2023-04-06T08:21:43.541Z,32.05
2023-04-06T08:22:46.504Z,31.98
2023-04-06T08:23:48.352Z,32.42
2023-04-06T08:24:51.191Z,32.19
2023-04-06T08:25:55.110Z,32.23
2023-04-06T08:27:00.888Z,32.04
2023-04-06T08:28:03.143Z,31.66
2023-04-06T08:29:08.426Z,31.35
2023-04-06T08:30:11.934Z,30.76
2023-04-06T08:31:14.754Z,30.96
2023-04-06T08:32:18.996Z,29.93
2023-04-06T08:33:20.862Z,29.21
2023-04-06T08:34:23.843Z,29.11
2023-04-06T08:35:25.729Z,28.39
2023-04-06T08:36:28.619Z,28.59
2023-04-06T08:37:31.613Z,28.30
2023-04-06T08:38:33.424Z,28.30
2023-04-06T08:39:36.215Z,28.56
2023-04-06T08:40:38.568Z,28.26
2023-04-06T08:41:43.875Z,28.81
2023-04-06T08:42:51.650Z,28.43
2023-04-06T08:43:58.510Z,28.08
2023-04-06T08:45:01.646Z,28.33
2023-04-06T08:46:05.282Z,28.27
2023-04-06T08:47:07.153Z,28.31
2023-04-06T08:48:11.821Z,28.12
2023-04-06T08:49:13.613Z,27.71
2023-04-06T08:50:16.456Z,28.17
2023-04-06T08:51:18.834Z,28.37
2023-04-06T08:52:22.056Z,27.88
2023-04-06T08:53:24.415Z,27.83
2023-04-06T08:54:27.246Z,28.33
2023-04-06T08:55:30.320Z,27.85
2023-04-06T08:56:32.233Z,28.38
2023-04-06T08:57:35.184Z,28.38
2023-04-06T08:58:40.088Z,28.08
2023-04-06T08:59:43.385Z,27.33
2023-04-06T09:00:45.283Z,27.31
2023-04-06T09:01:48.589Z,27.38
2023-04-06T09:02:51.091Z,27.44
2023-04-06T09:03:58.528Z,26.99
2023-04-06T09:05:03.027Z,27.26
2023-04-06T09:06:05.489Z,27.22
2023-04-06T09:07:08.285Z,26.89
2023-04-06T09:08:11.166Z,27.03
2023-04-06T09:09:13.947Z,26.77
2023-04-06T09:10:16.533Z,26.34
2023-04-06T09:11:19.312Z,26.05
2023-04-06T09:12:25.435Z,26.31
2023-04-06T09:13:28.314Z,26.41
2023-04-06T09:14:39.428Z,26.61
2023-04-06T09:15:42.311Z,26.03
2023-04-06T09:16:46.304Z,26.27
2023-04-06T09:17:49.244Z,26.12
2023-04-06T09:18:52.486Z,25.98
2023-04-06T09:19:56.084Z,26.14
2023-04-06T09:21:00.492Z,26.28
2023-04-06T09:22:04.754Z,26.08
2023-04-06T09:23:07.571Z,25.82
2023-04-06T09:24:12.311Z,25.85
2023-04-06T09:25:20.673Z,25.42
2023-04-06T09:26:23.824Z,25.57
2023-04-06T09:27:32.127Z,25.26
2023-04-06T09:28:46.508Z,25.24
2023-04-06T09:29:48.290Z,25.24
2023-04-06T09:30:51.334Z,24.75
2023-04-06T09:31:54.224Z,24.95
2023-04-06T09:32:57.687Z,25.00
2023-04-06T09:34:01.631Z,24.83
2023-04-06T09:35:10.313Z,25.02
2023-04-06T09:36:14.600Z,25.02
2023-04-06T09:37:16.997Z,24.73
2023-04-06T09:38:19.852Z,24.99
2023-04-06T09:39:23.313Z,24.95
2023-04-06T09:40:26.147Z,24.99
2023-04-06T09:41:28.989Z,24.65
2023-04-06T09:42:31.839Z,25.00
2023-04-06T09:43:33.663Z,25.04
2023-04-06T09:44:36.522Z,24.71
2023-04-06T09:45:39.426Z,24.86
2023-04-06T09:46:58.043Z,24.81
2023-04-06T09:48:03.511Z,24.81
2023-04-06T09:49:05.718Z,24.69
2023-04-06T09:50:11.848Z,24.77
2023-04-06T09:51:15.950Z,24.76
2023-04-06T09:52:19.109Z,25.00
2023-04-06T09:53:22.889Z,25.11
2023-04-06T09:54:25.767Z,25.10
2023-04-06T09:55:32.836Z,24.94
2023-04-06T09:56:41.995Z,24.75
2023-04-06T09:57:49.066Z,24.83
2023-04-06T09:58:51.392Z,24.71
2023-04-06T10:00:04.557Z,24.74
2023-04-06T10:01:08.397Z,24.79
2023-04-06T10:02:18.376Z,24.80
2023-04-06T10:03:27.968Z,25.05
2023-04-06T10:04:39.255Z,24.93
2023-04-06T10:05:49.121Z,24.97
2023-04-06T10:06:53.500Z,24.98
2023-04-06T10:08:01.106Z,24.71
2023-04-06T10:09:05.424Z,24.71
2023-04-06T10:10:09.489Z,24.53
2023-04-06T10:11:12.010Z,24.63
2023-04-06T10:12:15.954Z,24.78
2023-04-06T10:13:18.927Z,24.65
2023-04-06T10:14:21.766Z,24.37
2023-04-06T10:15:23.564Z,24.55
2023-04-06T10:16:27.172Z,24.31
2023-04-06T10:17:29.169Z,24.44
2023-04-06T10:18:32.265Z,24.59
2023-04-06T10:19:44.212Z,24.54
2023-04-06T10:20:50.231Z,24.37
2023-04-06T10:21:56.377Z,24.05
2023-04-06T10:23:03.030Z,23.70
2023-04-06T10:24:11.686Z,23.69
2023-04-06T10:25:14.755Z,23.77
2023-04-06T10:26:17.771Z,23.28
2023-04-06T10:27:30.925Z,23.32
2023-04-06T10:28:35.403Z,23.26
2023-04-06T10:29:45.299Z,23.34
2023-04-06T10:30:48.506Z,22.85
2023-04-06T10:31:51.425Z,23.37
2023-04-06T10:32:53.265Z,23.46
2023-04-06T10:33:57.483Z,23.30
2023-04-06T10:35:06.727Z,23.14
2023-04-06T10:36:15.570Z,23.10
2023-04-06T10:37:21.534Z,22.78
2023-04-06T10:38:36.645Z,22.54
2023-04-06T10:39:48.980Z,22.44
2023-04-06T10:40:52.008Z,22.07
2023-04-06T10:41:53.907Z,22.04
2023-04-06T10:42:57.874Z,21.98
2023-04-06T10:44:00.465Z,22.52
2023-04-06T10:45:03.259Z,22.13
2023-04-06T10:46:07.548Z,22.10
2023-04-06T10:47:18.264Z,22.11
2023-04-06T10:48:21.439Z,22.15
2023-04-06T10:49:25.248Z,22.36
2023-04-06T10:50:31.868Z,22.52
2023-04-06T10:51:39.145Z,22.42
2023-04-06T10:52:41.899Z,22.56
2023-04-06T10:53:46.269Z,21.71
2023-04-06T10:54:50.480Z,21.88
2023-04-06T10:55:54.162Z,21.88
2023-04-06T10:56:57.108Z,21.97
2023-04-06T10:58:00.054Z,21.87
2023-04-06T10:59:02.903Z,21.40
2023-04-06T11:00:06.007Z,21.77
2023-04-06T11:01:08.844Z,21.86
2023-04-06T11:02:21.510Z,21.95
2023-04-06T11:03:24.304Z,21.93
2023-04-06T11:04:27.342Z,21.77
2023-04-06T11:05:29.194Z,21.86
2023-04-06T11:06:33.500Z,21.51
2023-04-06T11:07:36.796Z,21.31
2023-04-06T11:08:40.933Z,21.24
2023-04-06T11:09:46.820Z,20.74
2023-04-06T11:10:53.358Z,20.98
2023-04-06T11:11:58.263Z,21.19
2023-04-06T11:13:01.065Z,21.51
2023-04-06T11:14:04.094Z,21.41
2023-04-06T11:15:08.029Z,21.41
2023-04-06T11:16:15.445Z,21.36
2023-04-06T11:17:18.285Z,21.32
2023-04-06T11:18:21.587Z,20.73
2023-04-06T11:19:24.481Z,20.85
2023-04-06T11:20:26.370Z,20.80
2023-04-06T11:21:37.580Z,20.52
2023-04-06T11:22:52.219Z,20.30
2023-04-06T11:23:54.026Z,20.21
2023-04-06T11:25:06.973Z,20.31
2023-04-06T11:26:12.917Z,20.02
2023-04-06T11:27:16.879Z,19.65
2023-04-06T11:28:18.971Z,19.58
2023-04-06T11:29:22.908Z,19.87
2023-04-06T11:30:24.733Z,19.89
2023-04-06T11:31:27.972Z,19.68
2023-04-06T11:32:30.931Z,19.46
2023-04-06T11:33:36.610Z,19.48
2023-04-06T11:34:42.007Z,19.44
2023-04-06T11:35:44.917Z,19.14
2023-04-06T11:36:48.187Z,19.05
2023-04-06T11:37:52.837Z,18.91
2023-04-06T11:38:54.640Z,19.01
2023-04-06T11:39:58.133Z,19.36
2023-04-06T11:41:01.137Z,19.63
2023-04-06T11:42:04.974Z,19.67
2023-04-06T11:43:13.305Z,19.47
2023-04-06T11:44:16.206Z,19.54
2023-04-06T11:45:18.973Z,19.79
2023-04-06T11:46:20.827Z,19.89
2023-04-06T11:47:30.345Z,19.83
2023-04-06T11:48:32.557Z,19.56
2023-04-06T11:49:38.785Z,19.59
2023-04-06T11:50:40.764Z,19.41
2023-04-06T11:51:43.534Z,19.10
2023-04-06T11:52:46.536Z,19.26
2023-04-06T11:53:49.718Z,19.34
2023-04-06T11:54:53.552Z,19.48
2023-04-06T11:55:56.386Z,18.76
2023-04-06T11:56:58.312Z,18.65
2023-04-06T11:58:01.325Z,18.47
2023-04-06T11:59:04.226Z,18.47
2023-04-06T12:00:07.407Z,18.32
2023-04-06T12:01:10.214Z,18.53
2023-04-06T12:02:13.150Z,18.68
2023-04-06T12:03:16.571Z,18.74
2023-04-06T12:04:19.550Z,18.81
2023-04-06T12:05:22.442Z,19.22
2023-04-06T12:06:26.562Z,19.10
2023-04-06T12:07:30.602Z,18.77
2023-04-06T12:08:32.482Z,18.90
2023-04-06T12:09:37.622Z,18.62
2023-04-06T12:10:39.512Z,18.80
2023-04-06T12:11:42.980Z,18.76
2023-04-06T12:12:44.931Z,18.47
2023-04-06T12:13:47.786Z,18.69
2023-04-06T12:14:49.578Z,18.63
2023-04-06T12:15:52.615Z,18.99
2023-04-06T12:16:54.500Z,18.79
2023-04-06T12:17:57.434Z,18.78
2023-04-06T12:19:01.044Z,18.45
2023-04-06T12:20:09.428Z,18.50
2023-04-06T12:21:20.839Z,19.03
2023-04-06T12:22:23.776Z,18.83
2023-04-06T12:23:25.983Z,18.83
2023-04-06T12:24:29.642Z,18.98
2023-04-06T12:25:32.935Z,18.75
2023-04-06T12:26:36.832Z,18.72
2023-04-06T12:27:39.691Z,18.63
2023-04-06T12:28:42.770Z,19.07
2023-04-06T12:29:45.648Z,18.98
2023-04-06T12:30:48.478Z,18.63
2023-04-06T12:31:52.129Z,18.45
2023-04-06T12:32:54.034Z,18.27
2023-04-06T12:33:56.954Z,17.96
2023-04-06T12:34:59.810Z,18.09
2023-04-06T12:36:02.540Z,18.03
2023-04-06T12:37:04.329Z,17.91
2023-04-06T12:38:07.134Z,18.03
2023-04-06T12:39:10.170Z,18.14
2023-04-06T12:40:13.272Z,18.13
2023-04-06T12:41:16.581Z,18.19
2023-04-06T12:42:19.477Z,18.22
2023-04-06T12:43:21.473Z,18.32
2023-04-06T12:44:25.541Z,18.14
2023-04-06T12:45:29.571Z,18.22
2023-04-06T12:46:32.769Z,17.87
2023-04-06T12:47:34.685Z,17.02
2023-04-06T12:48:37.598Z,16.72
2023-04-06T12:49:40.655Z,16.71
2023-04-06T12:50:43.421Z,17.00
2023-04-06T12:51:46.347Z,17.38
2023-04-06T12:52:49.569Z,17.45
2023-04-06T12:53:51.407Z,17.28
2023-04-06T12:54:54.214Z,17.33
2023-04-06T12:55:56.576Z,17.46
2023-04-06T12:57:01.885Z,17.61
2023-04-06T12:58:03.974Z,17.67
2023-04-06T12:59:07.336Z,17.70
2023-04-06T13:00:10.936Z,17.70
2023-04-06T13:01:14.850Z,17.86
2023-04-06T13:02:18.252Z,17.90
2023-04-06T13:03:20.297Z,18.35
2023-04-06T13:04:23.178Z,18.26
2023-04-06T13:05:26.419Z,18.29
2023-04-06T13:06:30.223Z,18.15
2023-04-06T13:07:32.051Z,18.08
2023-04-06T13:08:34.850Z,17.63
2023-04-06T13:09:37.587Z,16.88
2023-04-06T13:10:39.382Z,16.93
2023-04-06T13:11:43.909Z,16.78
2023-04-06T13:12:48.193Z,16.88
2023-04-06T13:13:50.253Z,16.82
2023-04-06T13:14:53.577Z,16.77
2023-04-06T13:15:56.564Z,16.60
2023-04-06T13:16:59.678Z,16.45
2023-04-06T13:18:02.492Z,16.55
2023-04-06T13:19:05.323Z,16.92
2023-04-06T13:20:09.338Z,16.91
2023-04-06T13:21:16.959Z,17.21
2023-04-06T13:22:18.980Z,17.23
2023-04-06T13:23:21.778Z,17.23
2023-04-06T13:24:25.052Z,17.16
2023-04-06T13:25:33.529Z,16.90
2023-04-06T13:26:36.775Z,16.71
2023-04-06T13:27:40.530Z,17.13
2023-04-06T13:28:45.698Z,16.82
2023-04-06T13:29:47.904Z,16.89
2023-04-06T13:30:50.893Z,16.82
2023-04-06T13:31:53.747Z,16.95
2023-04-06T13:32:55.749Z,17.07
2023-04-06T13:33:58.538Z,16.95
2023-04-06T13:35:01.780Z,17.00
2023-04-06T13:36:04.309Z,16.77
2023-04-06T13:37:07.317Z,16.54
2023-04-06T13:38:10.327Z,16.43
2023-04-06T13:39:12.172Z,16.68
2023-04-06T13:40:18.814Z,16.72
2023-04-06T13:41:22.930Z,16.65
2023-04-06T13:42:25.944Z,16.87
2023-04-06T13:43:27.994Z,16.56
2023-04-06T13:44:32.236Z,16.68
2023-04-06T13:45:34.136Z,16.82
2023-04-06T13:46:36.978Z,16.95
2023-04-06T13:47:39.829Z,16.74
2023-04-06T13:48:41.983Z,16.75
2023-04-06T13:49:44.975Z,16.87
2023-04-06T13:50:46.886Z,16.86
2023-04-06T13:51:49.700Z,17.01
2023-04-06T13:52:52.534Z,17.40
2023-04-06T13:53:54.722Z,17.30
2023-04-06T13:54:57.476Z,17.52
2023-04-06T13:55:59.197Z,17.54
2023-04-06T13:57:01.937Z,17.71
2023-04-06T13:58:04.873Z,17.69
2023-04-06T13:59:06.952Z,17.47
2023-04-06T14:00:13.702Z,17.12
2023-04-06T14:01:16.643Z,17.16
2023-04-06T14:02:20.792Z,17.13
2023-04-06T14:03:23.906Z,17.42
2023-04-06T14:04:26.738Z,17.23
2023-04-06T14:05:32.432Z,17.32
2023-04-06T14:06:35.194Z,17.41
2023-04-06T14:07:38.462Z,17.27
2023-04-06T14:08:42.079Z,17.18
2023-04-06T14:09:44.755Z,17.48
2023-04-06T14:10:46.455Z,17.39
2023-04-06T14:11:49.089Z,17.30
2023-04-06T14:12:51.328Z,17.48
2023-04-06T14:13:55.769Z,17.48
2023-04-06T14:14:59.094Z,17.52
2023-04-06T14:16:03.245Z,17.84
2023-04-06T14:17:05.073Z,17.58
2023-04-06T14:18:07.842Z,17.49
2023-04-06T14:19:09.521Z,17.46
2023-04-06T14:20:15.719Z,17.45
2023-04-06T14:21:19.521Z,17.53
2023-04-06T14:22:22.258Z,17.75
2023-04-06T14:23:26.848Z,17.66
2023-04-06T14:24:29.505Z,17.57
2023-04-06T14:25:32.400Z,17.64
2023-04-06T14:26:35.662Z,17.33
2023-04-06T14:27:38.304Z,17.49
2023-04-06T14:28:41.107Z,17.76
2023-04-06T14:29:42.796Z,17.92
2023-04-06T14:30:45.610Z,18.09
2023-04-06T14:31:50.116Z,17.99
2023-04-06T14:32:51.868Z,18.07
2023-04-06T14:33:54.769Z,18.12
2023-04-06T14:34:56.765Z,18.06
2023-04-06T14:35:59.432Z,18.10
2023-04-06T14:37:01.200Z,18.05
2023-04-06T14:38:03.937Z,18.27
2023-04-06T14:39:05.980Z,17.76
2023-04-06T14:40:10.033Z,18.14
2023-04-06T14:41:17.208Z,18.37
2023-04-06T14:42:19.936Z,18.28
2023-04-06T14:43:22.710Z,18.47
2023-04-06T14:44:24.386Z,18.70
2023-04-06T14:45:27.079Z,18.59
2023-04-06T14:46:28.823Z,18.62
2023-04-06T14:47:33.950Z,18.91